createdAt,value
2018-04-26T00:00:55.018Z,81.14
2018-04-26T00:01:54.915Z,80.72
2018-04-26T00:02:54.810Z,80.76
2018-04-26T00:03:54.708Z,80.95
2018-04-26T00:04:54.616Z,81.05
2018-04-26T00:05:54.516Z,80.95
2018-04-26T00:06:54.409Z,81.05
2018-04-26T00:07:54.306Z,81.01
2018-04-26T00:08:54.202Z,80.95
2018-04-26T00:09:54.112Z,80.82
2018-04-26T00:10:54.010Z,80.86
2018-04-26T00:11:53.906Z,81.14
2018-04-26T00:12:53.804Z,81.01
2018-04-26T00:13:53.700Z,81.10
2018-04-26T00:14:53.607Z,80.82
2018-04-26T00:15:53.506Z,80.82
2018-04-26T00:16:53.401Z,81.48
2018-04-26T00:17:53.298Z,81.48
2018-04-26T00:18:53.195Z,81.01
2018-04-26T00:19:53.093Z,81.29
2018-04-26T00:20:53.001Z,80.91
2018-04-26T00:21:52.898Z,81.20
2018-04-26T00:22:52.794Z,81.01
2018-04-26T00:23:52.691Z,80.82
2018-04-26T00:24:52.588Z,81.20
2018-04-26T00:25:52.485Z,81.58
2018-04-26T00:26:52.392Z,81.29
2018-04-26T00:27:52.290Z,81.48
2018-04-26T00:28:52.186Z,81.38
2018-04-26T00:29:52.082Z,81.29
2018-04-26T00:30:51.980Z,81.38
2018-04-26T00:31:51.878Z,80.96
2018-04-26T00:32:51.785Z,80.91
2018-04-26T00:33:51.683Z,81.38
2018-04-26T00:34:51.579Z,81.29
2018-04-26T00:35:51.477Z,81.20
2018-04-26T00:36:51.381Z,81.29
2018-04-26T00:37:51.281Z,81.16
2018-04-26T00:38:51.178Z,81.48
2018-04-26T00:39:51.075Z,81.25
2018-04-26T00:40:50.971Z,81.44
2018-04-26T00:41:50.868Z,81.35
2018-04-26T00:42:50.765Z,81.35
2018-04-26T00:43:50.661Z,81.06
2018-04-26T00:44:50.571Z,81.54
2018-04-26T00:45:50.468Z,81.06
2018-04-26T00:46:50.365Z,81.35
2018-04-26T00:47:50.261Z,81.73
2018-04-26T00:48:50.159Z,80.96
2018-04-26T00:49:50.066Z,81.82
2018-04-26T00:50:49.963Z,81.82
2018-04-26T00:51:49.860Z,82.01
2018-04-26T00:52:50.006Z,81.63
2018-04-26T00:53:49.655Z,81.63
2018-04-26T00:54:49.563Z,81.92
2018-04-26T00:55:49.447Z,81.92
2018-04-26T00:56:49.343Z,81.92
2018-04-26T00:57:49.253Z,81.63
2018-04-26T00:58:49.149Z,82.20
2018-04-26T00:59:49.046Z,81.54
2018-04-26T01:00:48.944Z,81.82
2018-04-26T01:01:48.840Z,82.01
2018-04-26T01:02:48.737Z,82.01
2018-04-26T01:03:48.633Z,81.73
2018-04-26T01:04:48.542Z,82.39
2018-04-26T01:05:48.438Z,82.10
2018-04-26T01:06:48.334Z,82.39
2018-04-26T01:07:48.231Z,82.45
2018-04-26T01:08:48.128Z,82.64
2018-04-26T01:09:48.025Z,82.35
2018-04-26T01:10:47.922Z,82.73
2018-04-26T01:11:47.819Z,82.73
2018-04-26T01:12:47.728Z,82.73
2018-04-26T01:13:47.625Z,82.73
2018-04-26T01:14:47.523Z,82.77
2018-04-26T01:15:47.419Z,82.68
2018-04-26T01:16:47.316Z,83.06
2018-04-26T01:17:47.214Z,82.77
2018-04-26T01:18:47.109Z,82.77
2018-04-26T01:19:47.005Z,82.82
2018-04-26T01:20:46.916Z,82.87
2018-04-26T01:21:46.810Z,82.39
2018-04-26T01:22:47.008Z,83.01
2018-04-26T01:23:46.603Z,83.06
2018-04-26T01:24:46.500Z,82.73
2018-04-26T01:25:46.398Z,82.73
2018-04-26T01:26:46.295Z,82.54
2018-04-26T01:27:46.194Z,82.73
2018-04-26T01:28:46.100Z,82.45
2018-04-26T01:29:45.997Z,82.82
2018-04-26T01:30:45.893Z,82.92
2018-04-26T01:31:45.791Z,83.11
2018-04-26T01:32:45.698Z,83.20
2018-04-26T01:33:45.584Z,83.11
2018-04-26T01:34:45.480Z,82.92
2018-04-26T01:35:45.378Z,82.82
2018-04-26T01:36:45.276Z,82.73
2018-04-26T01:37:45.182Z,82.64
2018-04-26T01:38:45.080Z,82.92
2018-04-26T01:39:44.977Z,83.30
2018-04-26T01:40:44.872Z,83.39
2018-04-26T01:41:44.773Z,83.30
2018-04-26T01:42:44.666Z,83.01
2018-04-26T01:43:44.562Z,83.11
2018-04-26T01:44:44.463Z,83.30
2018-04-26T01:45:44.356Z,82.54
2018-04-26T01:46:44.253Z,82.73
2018-04-26T01:47:44.155Z,82.73
2018-04-26T01:48:44.060Z,82.92
2018-04-26T01:49:43.956Z,82.54
2018-04-26T01:50:43.853Z,83.39
2018-04-26T01:51:43.750Z,83.49
2018-04-26T01:52:43.645Z,83.59
2018-04-26T01:53:43.543Z,83.49
2018-04-26T01:54:43.439Z,83.11
2018-04-26T01:55:43.336Z,83.11
2018-04-26T01:56:43.233Z,83.30
2018-04-26T01:57:43.131Z,83.20
2018-04-26T01:58:43.038Z,83.11
2018-04-26T01:59:42.938Z,83.30
2018-04-26T02:00:42.832Z,83.87
2018-04-26T02:01:42.728Z,83.97
2018-04-26T02:02:42.638Z,83.68
2018-04-26T02:03:42.523Z,83.68
2018-04-26T02:04:42.418Z,83.64
2018-04-26T02:05:42.315Z,83.64
2018-04-26T02:06:42.211Z,84.30
2018-04-26T02:07:42.108Z,83.92
2018-04-26T02:08:42.005Z,84.01
2018-04-26T02:09:41.904Z,83.92
2018-04-26T02:10:41.811Z,83.83
2018-04-26T02:11:41.708Z,84.49
2018-04-26T02:12:41.605Z,84.68
2018-04-26T02:13:41.502Z,84.59
2018-04-26T02:14:41.399Z,84.68
2018-04-26T02:15:41.302Z,84.59
2018-04-26T02:16:41.191Z,84.78
2018-04-26T02:17:41.088Z,84.87
2018-04-26T02:18:40.985Z,84.97
2018-04-26T02:19:40.882Z,85.16
2018-04-26T02:20:40.779Z,85.06
2018-04-26T02:21:40.676Z,84.78
2018-04-26T02:22:40.823Z,84.87
2018-04-26T02:23:40.470Z,84.97
2018-04-26T02:24:40.381Z,84.87
2018-04-26T02:25:40.275Z,84.87
2018-04-26T02:26:40.170Z,85.25
2018-04-26T02:27:40.067Z,85.25
2018-04-26T02:28:39.963Z,85.44
2018-04-26T02:29:39.865Z,85.16
2018-04-26T02:30:39.757Z,85.44
2018-04-26T02:31:39.653Z,85.82
2018-04-26T02:32:39.551Z,85.72
2018-04-26T02:33:39.447Z,85.63
2018-04-26T02:34:39.345Z,85.63
2018-04-26T02:35:39.241Z,85.82
2018-04-26T02:36:39.137Z,85.82
2018-04-26T02:37:39.039Z,86.20
2018-04-26T02:38:38.944Z,86.68
2018-04-26T02:39:38.841Z,86.30
2018-04-26T02:40:38.738Z,86.58
2018-04-26T02:41:38.635Z,86.58
2018-04-26T02:42:38.531Z,86.39
2018-04-26T02:43:38.433Z,86.20
2018-04-26T02:44:38.324Z,86.39
2018-04-26T02:45:38.221Z,86.39
2018-04-26T02:46:38.117Z,86.20
2018-04-26T02:47:38.014Z,86.39
2018-04-26T02:48:37.926Z,86.49
2018-04-26T02:49:37.808Z,86.49
2018-04-26T02:50:37.705Z,86.20
2018-04-26T02:51:37.601Z,86.68
2018-04-26T02:52:37.497Z,86.77
2018-04-26T02:53:37.414Z,86.49
2018-04-26T02:54:37.302Z,86.58
2018-04-26T02:55:37.199Z,86.49
2018-04-26T02:56:37.111Z,86.68
2018-04-26T02:57:36.992Z,86.49
2018-04-26T02:58:36.890Z,86.49
2018-04-26T02:59:36.786Z,86.68
2018-04-26T03:00:36.696Z,86.49
2018-04-26T03:01:36.579Z,86.58
2018-04-26T03:02:36.476Z,86.87
2018-04-26T03:03:36.373Z,86.58
2018-04-26T03:04:36.270Z,86.58
2018-04-26T03:05:36.169Z,86.58
2018-04-26T03:06:36.062Z,86.58
2018-04-26T03:07:35.960Z,86.68
2018-04-26T03:08:35.863Z,86.77
2018-04-26T03:09:35.765Z,86.49
2018-04-26T03:10:35.664Z,86.30
2018-04-26T03:11:35.559Z,86.77
2018-04-26T03:12:35.455Z,86.20
2018-04-26T03:13:35.353Z,86.49
2018-04-26T03:14:35.249Z,86.58
2018-04-26T03:15:35.145Z,86.68
2018-04-26T03:16:35.042Z,86.49
2018-04-26T03:17:34.940Z,86.96
2018-04-26T03:18:34.846Z,87.05
2018-04-26T03:19:34.732Z,87.05
2018-04-26T03:20:34.634Z,87.05
2018-04-26T03:21:34.539Z,87.05
2018-04-26T03:22:34.435Z,86.96
2018-04-26T03:23:34.349Z,86.96
2018-04-26T03:24:34.228Z,87.43
2018-04-26T03:25:34.124Z,87.91
2018-04-26T03:26:34.020Z,87.43
2018-04-26T03:27:33.917Z,87.24
2018-04-26T03:28:33.813Z,87.53
2018-04-26T03:29:33.710Z,87.62
2018-04-26T03:30:33.608Z,87.24
2018-04-26T03:31:33.513Z,87.91
2018-04-26T03:32:33.400Z,87.43
2018-04-26T03:33:33.297Z,87.91
2018-04-26T03:34:33.195Z,87.62
2018-04-26T03:35:33.091Z,87.72
2018-04-26T03:36:32.989Z,87.68
2018-04-26T03:37:32.899Z,87.68
2018-04-26T03:38:32.793Z,88.24
2018-04-26T03:39:32.692Z,88.24
2018-04-26T03:40:32.590Z,88.53
2018-04-26T03:41:32.484Z,88.24
2018-04-26T03:42:32.381Z,88.24
2018-04-26T03:43:32.278Z,87.96
2018-04-26T03:44:32.177Z,88.81
2018-04-26T03:45:32.074Z,88.91
2018-04-26T03:46:31.967Z,88.81
2018-04-26T03:47:31.863Z,88.91
2018-04-26T03:48:31.761Z,89.00
2018-04-26T03:49:31.658Z,89.29
2018-04-26T03:50:31.555Z,89.95
2018-04-26T03:51:31.451Z,89.90
2018-04-26T03:52:31.347Z,89.76
2018-04-26T03:53:31.244Z,90.00
2018-04-26T03:54:31.153Z,89.95
2018-04-26T03:55:31.084Z,89.90
2018-04-26T03:56:30.947Z,89.90
2018-04-26T03:57:31.143Z,89.62
2018-04-26T03:58:30.755Z,89.05
2018-04-26T03:59:30.637Z,89.53
2018-04-26T04:00:30.533Z,88.95
2018-04-26T04:01:30.442Z,89.14
2018-04-26T04:02:30.327Z,89.14
2018-04-26T04:03:30.223Z,89.24
2018-04-26T04:04:30.120Z,89.33
2018-04-26T04:05:30.019Z,89.05
2018-04-26T04:06:29.914Z,88.67
2018-04-26T04:07:29.810Z,88.29
2018-04-26T04:08:29.707Z,88.39
2018-04-26T04:09:29.603Z,87.72
2018-04-26T04:10:29.501Z,87.86
2018-04-26T04:11:29.397Z,88.15
2018-04-26T04:12:29.306Z,87.67
2018-04-26T04:13:29.204Z,87.57
2018-04-26T04:14:29.101Z,87.67
2018-04-26T04:15:28.996Z,87.10
2018-04-26T04:16:28.894Z,87.38
2018-04-26T04:17:29.041Z,86.63
2018-04-26T04:18:28.686Z,86.34
2018-04-26T04:19:28.583Z,86.57
2018-04-26T04:20:28.479Z,86.29
2018-04-26T04:21:28.380Z,86.00
2018-04-26T04:22:28.275Z,85.91
2018-04-26T04:23:28.182Z,85.91
2018-04-26T04:24:28.078Z,86.10
2018-04-26T04:25:27.975Z,85.72
2018-04-26T04:26:27.872Z,85.91
2018-04-26T04:27:27.769Z,85.81
2018-04-26T04:28:27.665Z,85.81
2018-04-26T04:29:27.562Z,85.72
2018-04-26T04:30:27.509Z,85.91
2018-04-26T04:31:27.369Z,85.81
2018-04-26T04:32:27.265Z,86.10
2018-04-26T04:33:27.163Z,85.15
2018-04-26T04:34:27.059Z,86.00
2018-04-26T04:35:26.955Z,85.57
2018-04-26T04:36:26.857Z,85.57
2018-04-26T04:37:26.749Z,85.10
2018-04-26T04:38:26.659Z,85.00
2018-04-26T04:39:26.554Z,85.10
2018-04-26T04:40:26.450Z,85.00
2018-04-26T04:41:26.348Z,84.81
2018-04-26T04:42:26.250Z,85.10
2018-04-26T04:43:26.156Z,85.00
2018-04-26T04:44:26.052Z,84.52
2018-04-26T04:45:25.947Z,84.52
2018-04-26T04:46:25.844Z,84.24
2018-04-26T04:47:25.741Z,84.33
2018-04-26T04:48:25.638Z,84.14
2018-04-26T04:49:25.548Z,83.90
2018-04-26T04:50:25.455Z,84.38
2018-04-26T04:51:25.354Z,84.09
2018-04-26T04:52:25.235Z,83.65
2018-04-26T04:53:25.132Z,83.09
2018-04-26T04:54:25.030Z,83.28
2018-04-26T04:55:24.939Z,82.51
2018-04-26T04:56:24.837Z,83.03
2018-04-26T04:57:24.735Z,82.65
2018-04-26T04:58:24.630Z,82.46
2018-04-26T04:59:24.538Z,82.18
2018-04-26T05:00:24.447Z,81.28
2018-04-26T05:01:24.335Z,82.46
2018-04-26T05:02:24.228Z,81.89
2018-04-26T05:03:24.126Z,81.98
2018-04-26T05:04:24.034Z,81.51
2018-04-26T05:05:23.931Z,81.13
2018-04-26T05:06:23.828Z,82.27
2018-04-26T05:07:23.841Z,81.13
2018-04-26T05:08:23.634Z,81.56
2018-04-26T05:09:23.543Z,81.47
2018-04-26T05:10:23.440Z,81.37
2018-04-26T05:11:23.336Z,81.85
2018-04-26T05:12:23.233Z,81.56
2018-04-26T05:13:23.130Z,81.66
2018-04-26T05:14:23.039Z,81.37
2018-04-26T05:15:22.935Z,81.52
2018-04-26T05:16:22.837Z,81.33
2018-04-26T05:17:22.742Z,81.24
2018-04-26T05:18:22.638Z,81.33
2018-04-26T05:19:22.535Z,81.33
2018-04-26T05:20:22.432Z,82.09
2018-04-26T05:21:22.340Z,82.00
2018-04-26T05:22:22.250Z,81.81
2018-04-26T05:23:22.133Z,82.09
2018-04-26T05:24:22.044Z,82.19
2018-04-26T05:25:21.941Z,82.28
2018-04-26T05:26:21.836Z,82.48
2018-04-26T05:27:21.734Z,82.57
2018-04-26T05:28:21.642Z,82.76
2018-04-26T05:29:21.539Z,82.57
2018-04-26T05:30:21.448Z,82.86
2018-04-26T05:31:21.352Z,82.86
2018-04-26T05:32:21.241Z,82.67
2018-04-26T05:33:21.139Z,82.67
2018-04-26T05:34:21.036Z,83.14
2018-04-26T05:35:20.944Z,82.76
2018-04-26T05:36:20.840Z,82.86
2018-04-26T05:37:20.737Z,82.95
2018-04-26T05:38:20.633Z,82.86
2018-04-26T05:39:20.543Z,82.95
2018-04-26T05:40:20.441Z,82.76
2018-04-26T05:41:20.337Z,82.95
2018-04-26T05:42:20.233Z,83.23
2018-04-26T05:43:20.131Z,82.86
2018-04-26T05:44:20.038Z,82.67
2018-04-26T05:45:19.935Z,82.61
2018-04-26T05:46:19.832Z,82.51
2018-04-26T05:47:19.806Z,82.90
2018-04-26T05:48:19.639Z,82.14
2018-04-26T05:49:19.535Z,82.65
2018-04-26T05:50:19.431Z,82.08
2018-04-26T05:51:19.340Z,82.27
2018-04-26T05:52:19.237Z,81.89
2018-04-26T05:53:19.134Z,81.79
2018-04-26T05:54:19.032Z,81.98
2018-04-26T05:55:18.941Z,81.89
2018-04-26T05:56:18.841Z,81.51
2018-04-26T05:57:19.039Z,81.32
2018-04-26T05:58:18.643Z,81.07
2018-04-26T05:59:18.540Z,81.65
2018-04-26T06:00:18.508Z,80.88
2018-04-26T06:01:18.334Z,81.65
2018-04-26T06:02:18.244Z,81.55
2018-04-26T06:03:18.143Z,81.17
2018-04-26T06:04:18.036Z,80.79
2018-04-26T06:05:17.946Z,80.98
2018-04-26T06:06:17.841Z,80.22
2018-04-26T06:07:17.742Z,80.98
2018-04-26T06:08:17.649Z,80.69
2018-04-26T06:09:17.545Z,80.50
2018-04-26T06:10:17.441Z,80.50
2018-04-26T06:11:17.368Z,80.88
2018-04-26T06:12:17.246Z,80.79
2018-04-26T06:13:17.143Z,80.50
2018-04-26T06:14:17.053Z,80.79
2018-04-26T06:15:16.952Z,80.31
2018-04-26T06:16:16.846Z,80.31
2018-04-26T06:17:16.755Z,80.79
2018-04-26T06:18:16.651Z,80.50
2018-04-26T06:19:16.550Z,80.02
2018-04-26T06:20:16.459Z,80.02
2018-04-26T06:21:16.360Z,80.31
2018-04-26T06:22:16.252Z,80.88
2018-04-26T06:23:16.160Z,80.50
2018-04-26T06:24:16.061Z,79.83
2018-04-26T06:25:15.967Z,80.60
2018-04-26T06:26:15.864Z,80.50
2018-04-26T06:27:15.769Z,80.50
2018-04-26T06:28:15.660Z,80.02
2018-04-26T06:29:15.566Z,79.74
2018-04-26T06:30:15.467Z,79.93
2018-04-26T06:31:15.359Z,79.83
2018-04-26T06:32:15.269Z,79.93
2018-04-26T06:33:15.166Z,80.07
2018-04-26T06:34:15.068Z,79.78
2018-04-26T06:35:14.971Z,79.78
2018-04-26T06:36:14.868Z,79.88
2018-04-26T06:37:15.065Z,80.07
2018-04-26T06:38:14.675Z,79.59
2018-04-26T06:39:14.576Z,79.68
2018-04-26T06:40:14.468Z,79.59
2018-04-26T06:41:14.376Z,79.68
2018-04-26T06:42:14.314Z,79.21
2018-04-26T06:43:14.182Z,79.30
2018-04-26T06:44:14.078Z,79.59
2018-04-26T06:45:13.975Z,78.73
2018-04-26T06:46:13.887Z,79.40
2018-04-26T06:47:13.780Z,79.78
2018-04-26T06:48:13.677Z,79.02
2018-04-26T06:49:13.589Z,79.78
2018-04-26T06:50:13.483Z,79.97
2018-04-26T06:51:13.392Z,79.68
2018-04-26T06:52:13.288Z,79.40
2018-04-26T06:53:13.186Z,79.59
2018-04-26T06:54:13.099Z,79.88
2018-04-26T06:55:12.992Z,79.21
2018-04-26T06:56:12.901Z,79.40
2018-04-26T06:57:12.813Z,79.30
2018-04-26T06:58:12.694Z,79.40
2018-04-26T06:59:12.605Z,79.59
2018-04-26T07:00:12.502Z,79.59
2018-04-26T07:01:12.410Z,80.44
2018-04-26T07:02:12.306Z,79.68
2018-04-26T07:03:12.206Z,79.78
2018-04-26T07:04:12.113Z,80.44
2018-04-26T07:05:12.010Z,78.73
2018-04-26T07:06:11.906Z,80.35
2018-04-26T07:07:11.814Z,79.78
2018-04-26T07:08:11.714Z,80.54
2018-04-26T07:09:11.613Z,80.60
2018-04-26T07:10:11.522Z,80.22
2018-04-26T07:11:11.415Z,80.12
2018-04-26T07:12:11.371Z,80.22
2018-04-26T07:13:11.220Z,80.50
2018-04-26T07:14:11.117Z,80.22
2018-04-26T07:15:11.026Z,80.65
2018-04-26T07:16:10.922Z,80.84
2018-04-26T07:17:10.820Z,81.23
2018-04-26T07:18:10.727Z,80.94
2018-04-26T07:19:10.627Z,81.13
2018-04-26T07:20:10.522Z,81.79
2018-04-26T07:21:10.431Z,80.27
2018-04-26T07:22:10.327Z,81.32
2018-04-26T07:23:10.236Z,81.89
2018-04-26T07:24:10.134Z,81.55
2018-04-26T07:25:10.029Z,81.46
2018-04-26T07:26:09.943Z,82.21
2018-04-26T07:27:09.836Z,80.98
2018-04-26T07:28:09.734Z,81.65
2018-04-26T07:29:09.641Z,82.21
2018-04-26T07:30:09.540Z,81.88
2018-04-26T07:31:09.434Z,81.12
2018-04-26T07:32:09.347Z,81.12
2018-04-26T07:33:09.240Z,80.96
2018-04-26T07:34:09.138Z,80.62
2018-04-26T07:35:09.060Z,82.09
2018-04-26T07:36:08.943Z,80.22
2018-04-26T07:37:08.839Z,79.17
2018-04-26T07:38:08.750Z,79.27
2018-04-26T07:39:08.647Z,80.32
2018-04-26T07:40:08.543Z,79.99
2018-04-26T07:41:08.452Z,78.85
2018-04-26T07:42:08.349Z,79.23
2018-04-26T07:43:08.258Z,78.18
2018-04-26T07:44:08.155Z,79.14
2018-04-26T07:45:08.053Z,79.17
2018-04-26T07:46:07.960Z,79.56
2018-04-26T07:47:07.857Z,78.79
2018-04-26T07:48:07.769Z,78.79
2018-04-26T07:49:07.669Z,78.03
2018-04-26T07:50:07.571Z,78.13
2018-04-26T07:51:07.468Z,77.84
2018-04-26T07:52:07.366Z,78.26
2018-04-26T07:53:07.303Z,77.59
2018-04-26T07:54:07.172Z,78.74
2018-04-26T07:55:07.079Z,77.40
2018-04-26T07:56:06.977Z,76.03
2018-04-26T07:57:06.887Z,76.40
2018-04-26T07:58:06.785Z,77.30
2018-04-26T07:59:06.691Z,77.11
2018-04-26T08:00:06.589Z,77.01
2018-04-26T08:01:06.498Z,76.29
2018-04-26T08:02:06.406Z,76.67
2018-04-26T08:03:06.303Z,76.96
2018-04-26T08:04:06.213Z,76.39
2018-04-26T08:05:06.110Z,76.57
2018-04-26T08:06:06.018Z,76.57
2018-04-26T08:07:05.915Z,76.67
2018-04-26T08:08:05.824Z,76.29
2018-04-26T08:09:05.722Z,75.52
2018-04-26T08:10:05.630Z,75.91
2018-04-26T08:11:05.540Z,75.62
2018-04-26T08:12:05.437Z,75.71
2018-04-26T08:13:05.345Z,75.14
2018-04-26T08:14:05.242Z,74.99
2018-04-26T08:15:05.152Z,74.70
2018-04-26T08:16:05.060Z,75.85
2018-04-26T08:17:04.957Z,74.90
2018-04-26T08:18:04.867Z,74.51
2018-04-26T08:19:04.766Z,74.22
2018-04-26T08:20:04.672Z,74.57
2018-04-26T08:21:04.583Z,74.53
2018-04-26T08:22:04.481Z,74.98
2018-04-26T08:23:04.387Z,75.83
2018-04-26T08:24:04.285Z,73.44
2018-04-26T08:25:04.244Z,75.32
2018-04-26T08:26:04.103Z,77.19
2018-04-26T08:27:03.998Z,77.06
2018-04-26T08:28:03.909Z,77.62
2018-04-26T08:29:03.820Z,78.35
2018-04-26T08:30:03.714Z,79.55
2018-04-26T08:31:03.626Z,79.27
2018-04-26T08:32:03.520Z,79.07
2018-04-26T08:33:03.429Z,79.46
2018-04-26T08:34:03.325Z,80.22
2018-04-26T08:35:03.224Z,81.26
2018-04-26T08:36:03.133Z,81.65
2018-04-26T08:37:03.029Z,81.55
2018-04-26T08:38:02.939Z,81.46
2018-04-26T08:39:02.835Z,81.26
2018-04-26T08:40:02.744Z,81.36
2018-04-26T08:41:02.641Z,82.12
2018-04-26T08:42:02.554Z,81.65
2018-04-26T08:43:02.449Z,82.03
2018-04-26T08:44:02.344Z,82.89
2018-04-26T08:45:02.253Z,82.69
2018-04-26T08:46:02.227Z,83.17
2018-04-26T08:47:02.058Z,82.98
2018-04-26T08:48:01.954Z,82.98
2018-04-26T08:49:01.857Z,82.98
2018-04-26T08:50:01.761Z,83.32
2018-04-26T08:51:01.661Z,83.70
2018-04-26T08:52:01.554Z,84.46
2018-04-26T08:53:01.462Z,84.75
2018-04-26T08:54:01.361Z,85.60
2018-04-26T08:55:01.257Z,84.65
2018-04-26T08:56:01.166Z,84.60
2018-04-26T08:57:01.064Z,84.65
2018-04-26T08:58:00.973Z,83.70
2018-04-26T08:59:00.869Z,83.61
2018-04-26T09:00:00.769Z,83.80
2018-04-26T09:01:00.674Z,84.17
2018-04-26T09:02:00.570Z,84.46
2018-04-26T09:03:00.468Z,85.22
2018-04-26T09:04:00.376Z,85.18
2018-04-26T09:05:00.272Z,85.66
2018-04-26T09:06:00.170Z,85.71
2018-04-26T09:07:00.067Z,85.90
2018-04-26T09:07:59.975Z,86.28
2018-04-26T09:08:59.872Z,87.32
2018-04-26T09:09:59.769Z,87.90
2018-04-26T09:10:59.666Z,87.90
2018-04-26T09:11:59.573Z,89.23
2018-04-26T09:12:59.471Z,89.61
2018-04-26T09:13:59.368Z,90.28
2018-04-26T09:14:59.263Z,90.28
2018-04-26T09:15:59.220Z,90.23
2018-04-26T09:16:59.070Z,90.04
2018-04-26T09:17:58.967Z,90.42
2018-04-26T09:18:58.868Z,90.04
2018-04-26T09:19:58.760Z,90.08
2018-04-26T09:20:58.657Z,89.66
2018-04-26T09:21:58.596Z,89.56
2018-04-26T09:22:58.462Z,89.85
2018-04-26T09:23:58.361Z,89.66
2018-04-26T09:24:58.256Z,90.04
2018-04-26T09:25:58.152Z,90.80
2018-04-26T09:26:58.049Z,90.89
2018-04-26T09:27:57.947Z,91.28
2018-04-26T09:28:57.855Z,90.80
2018-04-26T09:29:57.824Z,90.23
2018-04-26T09:30:57.649Z,90.04
2018-04-26T09:31:57.550Z,90.33
2018-04-26T09:32:57.443Z,90.04
2018-04-26T09:33:57.339Z,89.56
2018-04-26T09:34:57.242Z,89.28
2018-04-26T09:35:57.144Z,87.85
2018-04-26T09:36:57.040Z,88.66
2018-04-26T09:37:56.937Z,88.66
2018-04-26T09:38:56.835Z,87.80
2018-04-26T09:39:56.731Z,87.52
2018-04-26T09:40:56.628Z,86.42
2018-04-26T09:41:56.538Z,85.66
2018-04-26T09:42:56.434Z,85.80
2018-04-26T09:43:56.332Z,85.17
2018-04-26T09:44:56.229Z,84.74
2018-04-26T09:45:56.136Z,84.74
2018-04-26T09:46:56.033Z,84.49
2018-04-26T09:47:55.930Z,84.30
2018-04-26T09:48:55.829Z,81.92
2018-04-26T09:49:55.742Z,83.73
2018-04-26T09:50:55.633Z,82.92
2018-04-26T09:51:55.531Z,81.88
2018-04-26T09:52:55.441Z,82.26
2018-04-26T09:53:55.335Z,82.83
2018-04-26T09:54:55.232Z,83.12
2018-04-26T09:55:55.143Z,84.07
2018-04-26T09:56:55.039Z,82.45
2018-04-26T09:57:54.942Z,83.31
2018-04-26T09:58:54.843Z,82.07
2018-04-26T09:59:54.753Z,83.73
2018-04-26T10:00:54.650Z,82.48
2018-04-26T10:01:54.547Z,83.38
2018-04-26T10:02:54.456Z,83.09
2018-04-26T10:03:54.361Z,78.13
2018-04-26T10:04:54.262Z,79.75
2018-04-26T10:05:54.162Z,79.99
2018-04-26T10:06:54.066Z,80.28
2018-04-26T10:07:53.977Z,80.70
2018-04-26T10:08:53.911Z,80.09
2018-04-26T10:09:53.786Z,81.52
2018-04-26T10:10:53.677Z,81.14
2018-04-26T10:11:53.588Z,79.23
2018-04-26T10:12:53.496Z,80.90
2018-04-26T10:13:53.394Z,80.84
2018-04-26T10:14:53.303Z,79.88
2018-04-26T10:15:53.211Z,78.41
2018-04-26T10:16:53.151Z,80.32
2018-04-26T10:17:53.018Z,79.69
2018-04-26T10:18:52.938Z,79.06
2018-04-26T10:19:52.822Z,79.25
2018-04-26T10:20:52.733Z,80.79
2018-04-26T10:21:52.642Z,78.30
2018-04-26T10:22:52.551Z,78.11
2018-04-26T10:23:52.448Z,77.67
2018-04-26T10:24:52.356Z,78.19
2018-04-26T10:25:52.265Z,78.03
2018-04-26T10:26:52.174Z,76.65
2018-04-26T10:27:52.084Z,77.00
2018-04-26T10:28:51.993Z,77.99
2018-04-26T10:29:51.917Z,75.47
2018-04-26T10:30:51.810Z,79.58
2018-04-26T10:31:51.726Z,77.92
2018-04-26T10:32:51.629Z,78.55
2018-04-26T10:33:51.539Z,78.26
2018-04-26T10:34:51.448Z,76.03
2018-04-26T10:35:51.358Z,77.45
2018-04-26T10:36:51.266Z,78.70
2018-04-26T10:37:51.176Z,79.54
2018-04-26T10:38:51.089Z,76.77
2018-04-26T10:39:50.993Z,75.96
2018-04-26T10:40:50.907Z,78.22
2018-04-26T10:41:50.812Z,77.45
2018-04-26T10:42:50.708Z,77.74
2018-04-26T10:43:50.618Z,78.13
2018-04-26T10:44:50.531Z,78.26
2018-04-26T10:45:50.437Z,79.35
2018-04-26T10:46:50.345Z,76.45
2018-04-26T10:47:50.254Z,77.55
2018-04-26T10:48:50.165Z,75.74
2018-04-26T10:49:50.074Z,76.96
2018-04-26T10:50:49.982Z,79.91
2018-04-26T10:51:49.879Z,77.09
2018-04-26T10:52:49.787Z,76.48
2018-04-26T10:53:49.702Z,75.91
2018-04-26T10:54:49.606Z,78.01
2018-04-26T10:55:49.516Z,76.25
2018-04-26T10:56:49.424Z,77.08
2018-04-26T10:57:49.335Z,76.94
2018-04-26T10:58:49.242Z,76.27
2018-04-26T10:59:49.140Z,77.32
2018-04-26T11:00:49.050Z,77.86
2018-04-26T11:01:48.957Z,76.62
2018-04-26T11:02:48.868Z,78.23
2018-04-26T11:03:48.790Z,79.48
2018-04-26T11:04:48.674Z,77.00
2018-04-26T11:05:48.583Z,77.57
2018-04-26T11:06:48.499Z,79.48
2018-04-26T11:07:48.401Z,77.76
2018-04-26T11:08:48.298Z,77.67
2018-04-26T11:09:48.206Z,79.02
2018-04-26T11:10:48.117Z,77.23
2018-04-26T11:11:48.025Z,78.93
2018-04-26T11:12:47.922Z,77.15
2018-04-26T11:13:47.831Z,76.62
2018-04-26T11:14:47.740Z,75.85
2018-04-26T11:15:47.637Z,75.12
2018-04-26T11:16:47.547Z,75.93
2018-04-26T11:17:47.455Z,76.06
2018-04-26T11:18:47.365Z,74.60
2018-04-26T11:19:47.263Z,73.32
2018-04-26T11:20:47.184Z,73.51
2018-04-26T11:21:47.079Z,73.90
2018-04-26T11:22:46.977Z,73.07
2018-04-26T11:23:46.886Z,73.19
2018-04-26T11:24:46.800Z,73.28
2018-04-26T11:25:46.706Z,73.72
2018-04-26T11:26:46.614Z,74.74
2018-04-26T11:27:46.527Z,75.66
2018-04-26T11:28:46.420Z,75.81
2018-04-26T11:29:46.329Z,74.19
2018-04-26T11:30:46.241Z,76.06
2018-04-26T11:31:46.148Z,75.30
2018-04-26T11:32:46.060Z,74.44
2018-04-26T11:33:45.965Z,76.50
2018-04-26T11:34:45.875Z,76.88
2018-04-26T11:35:45.771Z,74.59
2018-04-26T11:36:45.680Z,76.18
2018-04-26T11:37:45.590Z,76.56
2018-04-26T11:38:45.499Z,75.79
2018-04-26T11:39:45.397Z,76.71
2018-04-26T11:40:45.305Z,76.14
2018-04-26T11:41:45.215Z,75.57
2018-04-26T11:42:45.123Z,76.81
2018-04-26T11:43:45.020Z,76.42
2018-04-26T11:44:44.930Z,77.57
2018-04-26T11:45:44.838Z,76.90
2018-04-26T11:46:44.813Z,77.76
2018-04-26T11:47:44.646Z,76.90
2018-04-26T11:48:44.553Z,77.00
2018-04-26T11:49:44.450Z,76.23
2018-04-26T11:50:44.360Z,76.81
2018-04-26T11:51:44.269Z,78.47
2018-04-26T11:52:44.166Z,77.89
2018-04-26T11:53:44.067Z,76.12
2018-04-26T11:54:43.972Z,76.79
2018-04-26T11:55:43.884Z,77.40
2018-04-26T11:56:43.777Z,75.96
2018-04-26T11:57:43.687Z,75.20
2018-04-26T11:58:43.584Z,76.73
2018-04-26T11:59:43.492Z,76.25
2018-04-26T12:00:43.403Z,76.69
2018-04-26T12:01:43.299Z,76.31
2018-04-26T12:02:43.359Z,75.64
2018-04-26T12:03:43.104Z,76.40
2018-04-26T12:04:43.014Z,75.78
2018-04-26T12:05:42.923Z,75.59
2018-04-26T12:06:42.821Z,76.86
2018-04-26T12:07:42.814Z,74.85
2018-04-26T12:08:42.627Z,75.24
2018-04-26T12:09:42.534Z,74.66
2018-04-26T12:10:42.435Z,74.85
2018-04-26T12:11:42.342Z,75.14
2018-04-26T12:12:42.250Z,74.19
2018-04-26T12:13:42.147Z,74.82
2018-04-26T12:14:42.056Z,74.19
2018-04-26T12:15:41.965Z,73.77
2018-04-26T12:16:41.861Z,74.91
2018-04-26T12:17:41.771Z,74.95
2018-04-26T12:18:41.680Z,74.09
2018-04-26T12:19:41.576Z,74.38
2018-04-26T12:20:41.486Z,76.20
2018-04-26T12:21:41.383Z,74.32
2018-04-26T12:22:41.291Z,74.90
2018-04-26T12:23:41.201Z,75.22
2018-04-26T12:24:41.098Z,72.06
2018-04-26T12:25:41.006Z,72.44
2018-04-26T12:26:40.917Z,73.17
2018-04-26T12:27:40.813Z,71.83
2018-04-26T12:28:40.721Z,71.83
2018-04-26T12:29:40.638Z,71.48
2018-04-26T12:30:40.582Z,72.16
2018-04-26T12:31:40.437Z,71.97
2018-04-26T12:32:40.335Z,72.16
2018-04-26T12:33:40.243Z,71.87
2018-04-26T12:34:40.152Z,72.44
2018-04-26T12:35:40.050Z,71.45
2018-04-26T12:36:39.961Z,72.02
2018-04-26T12:37:39.867Z,71.26
2018-04-26T12:38:39.787Z,71.68
2018-04-26T12:39:39.674Z,71.87
2018-04-26T12:40:39.581Z,71.77
2018-04-26T12:41:39.494Z,71.16
2018-04-26T12:42:39.389Z,71.97
2018-04-26T12:43:39.297Z,71.20
2018-04-26T12:44:39.195Z,71.16
2018-04-26T12:45:39.103Z,71.64
2018-04-26T12:46:39.013Z,72.37
2018-04-26T12:47:38.909Z,72.37
2018-04-26T12:48:38.818Z,72.47
2018-04-26T12:49:38.730Z,74.34
2018-04-26T12:50:38.624Z,73.10
2018-04-26T12:51:38.533Z,75.10